world map with UNN marked

UNN - Airport

This information may not be accurate or current and is not valid for navigation or flight planning. No warranty of fitness for any purpose is made or implied.

flag of Thailand

Donate via PayPal

Additional information is available on the NEW Great Circle Mapper

Location
City:  Ranong, Ranong, Thailand
ICAO / IATA:VTSR / UNN

Details
Type:Airport (Aerodrome, Airfield)
Latitude:9°46'39"N (9.777622)
Longitude:98°35'08"E (98.585483)
Datum:WGS 1984
Elevation:57 ft (17 m)
Runways:1
Longest:6562 × 148 ft (2000 × 45 m)

Time
Timezone:UTC+7 (DST+9)
Local Time:

Weather
METAR:VTSR  041200Z 36004KT CAVOK 29/25 Q1012 NOSIG
TAF:VTSR  041100Z 0412/0512 10006KT 9999 BKN035 BECMG 0414/0416 VRB02KT 8000 BECMG 0504/0506 10008KT 9999 FEW020

Related Locations
Nearby:
Farthest:CHM: 12247 mi / 19710 km
Chimbote [Teniente FAP Jaime A. de Montrevil Morales], ANC, PE

Find:

   beyond  
but within

Other Information
Maps:
Sources:

  


 


Great Circle Mapper   Great Circle Mapper
Great Circle Mapper FAQ   Great Circle Mapper FAQ
  Karl's Home Page
KLSē   KLSē Home
   GC on Facebook
Airlines of the World   Airlines of the World
Donate via PayPal


Copyright © 2004-2020, Karl L. Swartz. All rights reserved.
All trademarks mentioned herein belong to their respective owners.

Please see credits for attribution and copyright information.

Karl Swartz <karl@kls2.com>
  Powered by FreeBSD
Valid HTML 4.01!
Labeled with ICRA
hCard Microformat
Geo Microformat